createdAt,value
2022-10-31T00:03:00.144Z,1015.6
2022-10-31T00:08:07.342Z,1015.7
2022-10-31T00:13:13.801Z,1015.6
2022-10-31T00:18:20.102Z,1015.6
2022-10-31T00:23:16.451Z,1015.5
2022-10-31T00:28:33.102Z,1015.7
2022-10-31T00:33:39.245Z,1015.7
2022-10-31T00:38:45.627Z,1015.7
2022-10-31T00:43:42.016Z,1015.7
2022-10-31T00:48:58.420Z,1015.7
2022-10-31T00:54:04.980Z,1015.7
2022-10-31T00:59:11.388Z,1015.8
2022-10-31T01:04:17.741Z,1016.0
2022-10-31T01:09:25.688Z,1016.0
2022-10-31T01:14:32.104Z,1015.9
2022-10-31T01:19:28.459Z,1015.9
2022-10-31T01:25:08.898Z,1015.9
2022-10-31T01:29:51.256Z,1015.9
2022-10-31T01:34:57.615Z,1015.9
2022-10-31T01:40:28.031Z,1015.8
2022-10-31T01:45:10.385Z,1015.8
2022-10-31T01:50:16.749Z,1015.8
2022-10-31T01:55:26.340Z,1015.8
2022-10-31T02:00:29.546Z,1015.8
2022-10-31T02:05:55.975Z,1015.8
2022-10-31T02:10:32.318Z,1015.8
2022-10-31T02:15:52.758Z,1015.9
2022-10-31T02:20:55.120Z,1015.9
2022-10-31T02:26:01.491Z,1015.9
2022-10-31T02:31:07.901Z,1016.0
2022-10-31T02:36:14.282Z,1016.1
2022-10-31T02:41:10.639Z,1016.0
2022-10-31T02:46:17.036Z,1016.1
2022-10-31T02:51:37.055Z,1016.1
2022-10-31T02:56:43.440Z,1015.7
2022-10-31T03:02:50.191Z,1015.8
2022-10-31T03:06:56.447Z,1016.0
2022-10-31T03:11:52.806Z,1016.0
2022-10-31T03:17:33.252Z,1016.0
2022-10-31T03:27:22.398Z,1016.2
2022-10-31T03:32:48.856Z,1016.1
2022-10-31T03:37:35.212Z,1016.2
2022-10-31T03:42:41.880Z,1016.2
2022-10-31T03:47:48.246Z,1016.1
2022-10-31T03:53:14.672Z,1016.1
2022-10-31T03:58:01.664Z,1016.0
2022-10-31T04:03:30.486Z,1016.0
2022-10-31T04:08:13.867Z,1016.0
2022-10-31T04:13:10.319Z,1016.2
2022-10-31T04:18:26.635Z,1016.1
2022-10-31T04:23:23.000Z,1016.1
2022-10-31T04:34:19.923Z,1016.2
2022-10-31T04:39:31.292Z,1016.2
2022-10-31T04:44:33.670Z,1016.3
2022-10-31T04:49:40.068Z,1016.3
2022-10-31T04:54:46.429Z,1016.3
2022-10-31T04:59:52.805Z,1016.2
2022-10-31T05:04:59.215Z,1016.1
2022-10-31T05:10:09.162Z,1016.1
2022-10-31T05:15:15.535Z,1016.1
2022-10-31T05:25:33.148Z,1015.9
2022-10-31T05:25:47.158Z,1016.0
2022-10-31T05:30:40.643Z,1015.9
2022-10-31T05:35:47.029Z,1015.9
2022-10-31T05:40:53.557Z,1015.9
2022-10-31T05:45:59.932Z,1016.0
2022-10-31T05:51:06.313Z,1016.0
2022-10-31T05:56:12.722Z,1016.0
2022-10-31T06:01:19.162Z,1016.0
2022-10-31T06:07:37.606Z,1016.0
2022-10-31T06:11:31.876Z,1016.0
2022-10-31T06:16:38.390Z,1016.0
2022-10-31T06:21:44.896Z,1016.0
2022-10-31T06:26:51.297Z,1016.1
2022-10-31T06:31:47.662Z,1016.0
2022-10-31T06:36:54.032Z,1016.1
2022-10-31T06:42:00.426Z,1016.0
2022-10-31T06:47:06.777Z,1016.2
2022-10-31T06:52:23.180Z,1016.1
2022-10-31T06:57:19.889Z,1016.1
2022-10-31T07:02:36.300Z,1016.2
2022-10-31T07:07:32.649Z,1016.3
2022-10-31T07:12:48.070Z,1016.4
2022-10-31T07:17:59.435Z,1016.4
2022-10-31T07:23:25.858Z,1016.3
2022-10-31T07:28:08.206Z,1016.3
2022-10-31T07:33:14.572Z,1016.3
2022-10-31T07:38:21.051Z,1016.4
2022-10-31T07:43:27.368Z,1016.4
2022-10-31T07:48:23.719Z,1016.3
2022-10-31T07:53:40.255Z,1016.4
2022-10-31T07:58:36.830Z,1016.3
2022-10-31T08:06:41.979Z,1016.3
2022-10-31T08:09:00.115Z,1016.3
2022-10-31T08:14:06.538Z,1016.2
2022-10-31T08:19:32.961Z,1016.3
2022-10-31T08:24:09.267Z,1016.3
2022-10-31T08:29:15.680Z,1016.3
2022-10-31T08:34:55.101Z,1016.2
2022-10-31T08:44:49.757Z,1016.1
2022-10-31T08:49:52.139Z,1016.1
2022-10-31T08:54:57.527Z,1016.1
2022-10-31T09:00:04.982Z,1016.0
2022-10-31T09:05:11.348Z,1016.1
2022-10-31T09:10:17.706Z,1016.0
2022-10-31T09:15:24.121Z,1016.0
2022-10-31T09:23:21.118Z,1016.0
2022-10-31T09:25:40.335Z,1016.0
2022-10-31T09:30:46.735Z,1016.0
2022-10-31T09:35:53.676Z,1016.0
2022-10-31T09:41:00.105Z,1016.1
2022-10-31T09:46:06.470Z,1015.9
2022-10-31T09:51:12.964Z,1015.9
2022-10-31T09:56:19.408Z,1015.8
2022-10-31T10:01:25.979Z,1015.8
2022-10-31T10:06:32.191Z,1015.7
2022-10-31T10:12:02.613Z,1015.7
2022-10-31T10:16:44.971Z,1015.6
2022-10-31T10:21:51.434Z,1015.4
2022-10-31T10:30:18.728Z,1015.3
2022-10-31T10:33:28.510Z,1015.3
2022-10-31T10:38:45.917Z,1015.2
2022-10-31T10:43:42.318Z,1015.1
2022-10-31T10:49:35.818Z,1015.0
2022-10-31T10:55:07.213Z,1014.8
2022-10-31T10:59:49.572Z,1014.7
2022-10-31T11:04:55.990Z,1014.6
2022-10-31T11:09:52.325Z,1014.5
2022-10-31T11:14:58.723Z,1014.5
2022-10-31T11:20:52.256Z,1014.3
2022-10-31T11:25:59.689Z,1014.1
2022-10-31T11:30:56.056Z,1014.2
2022-10-31T11:36:13.063Z,1014.1
2022-10-31T11:42:08.549Z,1014.2
2022-10-31T11:46:29.856Z,1014.2
2022-10-31T11:51:32.267Z,1014.1
2022-10-31T11:56:38.727Z,1013.9
2022-10-31T12:01:45.362Z,1013.9
2022-10-31T12:06:51.504Z,1013.9
2022-10-31T12:11:47.857Z,1013.7
2022-10-31T12:17:04.253Z,1013.4
2022-10-31T12:22:10.687Z,1013.4
2022-10-31T12:27:41.070Z,1013.3
2022-10-31T12:32:13.424Z,1013.3
2022-10-31T12:37:19.946Z,1013.3
2022-10-31T12:42:36.330Z,1013.3
2022-10-31T12:47:32.701Z,1013.1
2022-10-31T12:53:13.233Z,1013.1
2022-10-31T12:57:55.481Z,1012.8
2022-10-31T13:02:51.844Z,1012.7
2022-10-31T13:07:58.716Z,1012.6
2022-10-31T13:13:04.810Z,1012.3
2022-10-31T13:18:21.206Z,1012.7
2022-10-31T13:23:49.924Z,1012.6
2022-10-31T13:28:32.989Z,1012.5
2022-10-31T13:33:30.347Z,1012.4
2022-10-31T13:38:36.730Z,1012.2
2022-10-31T13:43:53.151Z,1012.1
2022-10-31T13:48:59.492Z,1012.0
2022-10-31T13:54:09.890Z,1011.8
2022-10-31T13:59:02.258Z,1011.6
2022-10-31T14:04:23.951Z,1011.8
2022-10-31T14:09:25.003Z,1011.5
2022-10-31T14:14:21.393Z,1011.6
2022-10-31T14:19:27.787Z,1011.5
2022-10-31T14:24:34.183Z,1011.4
2022-10-31T14:29:50.904Z,1011.3
2022-10-31T14:34:56.964Z,1011.2
2022-10-31T14:41:15.463Z,1011.0
2022-10-31T14:44:59.723Z,1010.9
2022-10-31T14:50:16.082Z,1010.8
2022-10-31T14:55:22.462Z,1010.8
2022-10-31T15:00:28.865Z,1010.8
2022-10-31T15:05:25.215Z,1010.8
2022-10-31T15:10:31.742Z,1010.8
2022-10-31T15:15:52.167Z,1010.8
2022-10-31T15:29:02.162Z,1010.5
2022-10-31T15:31:48.349Z,1010.5
2022-10-31T15:36:54.686Z,1010.6
2022-10-31T15:42:32.245Z,1010.6
2022-10-31T15:47:14.522Z,1010.5
2022-10-31T15:52:21.022Z,1010.4
2022-10-31T15:57:23.426Z,1010.2
2022-10-31T16:04:42.271Z,1010.3
2022-10-31T16:08:05.992Z,1010.2
2022-10-31T16:14:00.560Z,1010.1
2022-10-31T16:18:51.934Z,1009.9
2022-10-31T16:29:03.199Z,1009.9
2022-10-31T16:33:14.107Z,1009.9
2022-10-31T16:38:16.164Z,1010.0
2022-10-31T16:43:31.910Z,1009.8
2022-10-31T16:43:59.967Z,1010.1
2022-10-31T16:48:38.302Z,1009.8
2022-10-31T16:54:08.536Z,1009.9
2022-10-31T17:05:52.638Z,1009.5
2022-10-31T17:09:40.515Z,1009.7
2022-10-31T17:09:44.558Z,1009.5
2022-10-31T17:18:08.302Z,1009.5
2022-10-31T17:20:23.412Z,1009.4
2022-10-31T17:25:25.932Z,1009.4
2022-10-31T17:31:23.549Z,1009.3
2022-10-31T17:40:31.764Z,1009.3
2022-10-31T17:45:28.111Z,1009.4
2022-10-31T17:50:44.528Z,1009.3
2022-10-31T17:55:50.936Z,1009.1
2022-10-31T18:01:01.366Z,1009.1
2022-10-31T18:06:03.673Z,1009.0
2022-10-31T18:11:10.193Z,1009.0
2022-10-31T18:16:16.546Z,1008.9
2022-10-31T18:21:26.949Z,1008.8
2022-10-31T18:26:29.366Z,1008.8
2022-10-31T18:31:35.790Z,1008.8
2022-10-31T18:36:42.174Z,1008.7
2022-10-31T18:42:12.637Z,1008.7
2022-10-31T18:46:44.920Z,1008.5
2022-10-31T18:52:05.316Z,1008.5
2022-10-31T18:56:57.681Z,1008.5
2022-10-31T19:02:13.282Z,1008.4
2022-10-31T19:07:20.489Z,1008.4
2022-10-31T19:12:26.990Z,1008.3
2022-10-31T19:17:33.487Z,1008.3
2022-10-31T19:22:39.852Z,1008.2
2022-10-31T19:27:46.225Z,1008.2
2022-10-31T19:32:52.643Z,1008.1
2022-10-31T19:37:59.468Z,1008.2
2022-10-31T19:43:05.388Z,1008.0
2022-10-31T19:48:11.986Z,1008.0
2022-10-31T19:58:25.058Z,1007.9
2022-10-31T20:03:59.553Z,1007.9
2022-10-31T20:08:27.811Z,1007.9
2022-10-31T20:13:58.226Z,1007.8
2022-10-31T20:18:50.586Z,1007.7
2022-10-31T20:23:46.983Z,1007.6
2022-10-31T20:29:03.355Z,1007.7
2022-10-31T20:34:09.781Z,1007.7
2022-10-31T20:39:20.235Z,1007.6
2022-10-31T20:44:12.555Z,1007.6
2022-10-31T20:49:28.953Z,1007.6
2022-10-31T20:54:25.341Z,1007.5
2022-10-31T20:59:41.832Z,1007.5
2022-10-31T21:04:48.234Z,1007.5
2022-10-31T21:10:14.981Z,1007.5
2022-10-31T21:14:51.123Z,1007.4
2022-10-31T21:19:56.636Z,1007.5
2022-10-31T21:25:14.008Z,1007.4
2022-10-31T21:30:21.994Z,1007.4
2022-10-31T21:35:31.375Z,1007.4
2022-10-31T21:40:34.904Z,1007.3
2022-10-31T21:45:41.359Z,1007.3
2022-10-31T21:50:47.786Z,1007.3
2022-10-31T21:55:54.168Z,1007.3
2022-10-31T22:01:00.677Z,1007.2
2022-10-31T22:06:06.970Z,1007.0
2022-10-31T22:11:13.350Z,1007.0
2022-10-31T22:16:39.927Z,1006.9
2022-10-31T22:21:26.352Z,1006.7
2022-10-31T22:26:32.817Z,1006.8
2022-10-31T22:31:29.169Z,1006.7
2022-10-31T22:36:45.726Z,1006.6
2022-10-31T22:41:52.691Z,1006.5
2022-10-31T22:46:59.085Z,1006.5
2022-10-31T22:52:05.557Z,1006.5
2022-10-31T22:57:11.973Z,1006.5
2022-10-31T23:02:18.625Z,1006.5
2022-10-31T23:07:32.849Z,1006.4
2022-10-31T23:12:31.311Z,1006.3
2022-10-31T23:17:37.739Z,1006.3
2022-10-31T23:22:44.142Z,1006.2
2022-10-31T23:27:50.472Z,1006.2
2022-10-31T23:32:57.029Z,1006.1
2022-10-31T23:38:03.791Z,1006.0
2022-10-31T23:43:50.989Z,1006.1
2022-10-31T23:48:54.374Z,1005.9
2022-10-31T23:54:00.837Z,1006.1
2022-10-31T23:58:57.162Z,1006.1
